Time;durP1;ratioP1;P1;durP2;ratioP2;P2;SDS_P1;SDS_P2;PMS_P1;PMS_P2;Temp;Humidity;BMP_temperature;BMP_pressure;BME280_temperature;BME280_humidity;BME280_pressure;Samples;Min_cycle;Max_cycle;Signal;HPM_P1;HPM_P2
2023/03/10 00:01:18;;;;;;;4.63;1.00;;;26.20;92.40;;;;;;5030091;28;20555;-63
2023/03/10 00:03:46;;;;;;;5.93;1.40;;;26.40;92.40;;;;;;5035562;28;20045;-63
2023/03/10 00:06:15;;;;;;;13.65;1.83;;;26.70;91.90;;;;;;5030954;28;20071;-63
2023/03/10 00:08:44;;;;;;;3.10;0.98;;;27.10;93.10;;;;;;5022376;28;20025;-63
2023/03/10 00:11:12;;;;;;;4.65;1.00;;;27.40;91.10;;;;;;5024025;28;20088;-64
2023/03/10 00:13:40;;;;;;;4.13;0.90;;;27.90;91.90;;;;;;5029708;28;20029;-64
2023/03/10 00:16:12;;;;;;;5.55;1.17;;;28.20;90.40;;;;;;5024558;28;20033;-63
2023/03/10 00:18:41;;;;;;;8.75;1.50;;;28.30;91.30;;;;;;5023645;28;20037;-62
2023/03/10 00:21:14;;;;;;;8.02;1.17;;;28.70;89.20;;;;;;5027864;28;20041;-63
2023/03/10 00:23:42;;;;;;;8.70;1.47;;;29.00;84.90;;;;;;5029146;28;20047;-62
2023/03/10 00:26:13;;;;;;;5.15;1.95;;;29.10;88.00;;;;;;5032920;28;20285;-62
2023/03/10 00:28:41;;;;;;;9.23;2.20;;;29.30;84.60;;;;;;5024875;28;20075;-62
2023/03/10 00:31:12;;;;;;;8.98;2.33;;;29.30;84.20;;;;;;5028167;28;20175;-64
2023/03/10 00:33:39;;;;;;;7.10;2.13;;;29.20;85.00;;;;;;5024058;28;20052;-64
2023/03/10 00:36:14;;;;;;;7.20;2.08;;;29.00;82.40;;;;;;5028600;28;20052;-63
2023/03/10 00:38:43;;;;;;;6.65;1.65;;;28.90;81.60;;;;;;5020796;28;20031;-62
2023/03/10 00:41:13;;;;;;;7.72;3.05;;;28.80;83.50;;;;;;5026939;28;20021;-62
2023/03/10 00:43:41;;;;;;;7.55;3.05;;;28.80;84.20;;;;;;5029879;28;20021;-63
2023/03/10 00:46:09;;;;;;;7.07;2.72;;;29.20;86.90;;;;;;5028664;28;20057;-66
2023/03/10 00:48:37;;;;;;;9.20;2.60;;;29.30;82.30;;;;;;5026552;28;20587;-65
2023/03/10 00:51:05;;;;;;;8.27;2.67;;;29.50;85.50;;;;;;5031563;28;20014;-65
2023/03/10 00:53:35;;;;;;;7.13;2.53;;;29.60;78.90;;;;;;5038036;28;20116;-66
2023/03/10 00:56:22;;;;;;;9.00;2.83;;;29.30;78.40;;;;;;5031260;28;20057;-65
2023/03/10 00:58:57;;;;;;;7.85;2.40;;;29.30;80.10;;;;;;5028598;28;20481;-64
2023/03/10 01:01:26;;;;;;;6.40;2.28;;;29.50;78.50;;;;;;5025788;28;20547;-65
2023/03/10 01:03:57;;;;;;;6.50;3.53;;;29.20;81.80;;;;;;5020666;28;20635;-64
2023/03/10 01:06:25;;;;;;;7.68;3.92;;;29.40;77.90;;;;;;5026032;28;20498;-64
2023/03/10 01:08:53;;;;;;;4.97;3.42;;;29.10;79.40;;;;;;5028338;28;20025;-64
2023/03/10 01:11:25;;;;;;;8.23;3.25;;;29.00;77.00;;;;;;5018470;28;20053;-65
2023/03/10 01:13:55;;;;;;;7.60;2.85;;;28.70;78.10;;;;;;5025259;28;20108;-64
2023/03/10 01:16:23;;;;;;;8.43;3.50;;;28.80;82.70;;;;;;5027038;28;20494;-64
2023/03/10 01:18:50;;;;;;;11.90;3.25;;;29.20;77.90;;;;;;5033921;28;20060;-65
2023/03/10 01:21:27;;;;;;;7.93;3.30;;;29.60;79.40;;;;;;5028692;28;20040;-65
2023/03/10 01:23:55;;;;;;;6.78;3.53;;;29.70;77.40;;;;;;5029989;28;20079;-64
2023/03/10 01:26:22;;;;;;;6.63;3.20;;;29.80;76.10;;;;;;5028886;28;20033;-64
2023/03/10 01:28:50;;;;;;;11.05;3.45;;;30.00;73.90;;;;;;5033488;28;20029;-64
2023/03/10 01:31:18;;;;;;;10.48;3.53;;;30.30;73.30;;;;;;5029262;28;20453;-64
2023/03/10 01:33:46;;;;;;;9.35;3.20;;;30.40;74.00;;;;;;5030263;28;20406;-64
2023/03/10 01:36:16;;;;;;;4.95;2.83;;;30.30;73.50;;;;;;5028318;28;20398;-65
2023/03/10 01:38:44;;;;;;;8.23;3.42;;;30.20;73.60;;;;;;5032527;28;20043;-65
2023/03/10 01:41:13;;;;;;;6.32;3.15;;;30.20;75.90;;;;;;5028021;28;20048;-64
2023/03/10 01:43:49;;;;;;;8.48;3.08;;;30.60;76.40;;;;;;5041501;28;20044;-64
2023/03/10 01:46:29;;;;;;;6.43;2.88;;;31.20;74.90;;;;;;5026221;28;20478;-65
2023/03/10 01:49:03;;;;;;;5.32;2.97;;;31.40;72.40;;;;;;5024668;28;20036;-64
2023/03/10 01:51:35;;;;;;;6.25;2.78;;;31.50;68.10;;;;;;5023060;28;20475;-65
2023/03/10 01:54:06;;;;;;;7.40;3.28;;;31.30;71.60;;;;;;5025391;28;20022;-65
2023/03/10 01:56:35;;;;;;;6.70;2.85;;;31.40;70.60;;;;;;5025328;28;20080;-65
2023/03/10 01:59:03;;;;;;;8.98;3.50;;;31.20;69.20;;;;;;5024994;28;20045;-64
2023/03/10 02:01:31;;;;;;;10.18;4.10;;;30.90;69.20;;;;;;5029341;28;20021;-64
2023/03/10 02:04:15;;;;;;;10.40;4.93;;;30.90;74.00;;;;;;5026966;28;20080;-65
2023/03/10 02:06:45;;;;;;;7.80;2.92;;;30.80;73.20;;;;;;5019454;28;20126;-65
2023/03/10 02:09:14;;;;;;;5.35;3.35;;;31.10;73.60;;;;;;5023059;28;20025;-65
2023/03/10 02:11:42;;;;;;;6.53;3.30;;;31.00;67.90;;;;;;5029121;28;20067;-65
2023/03/10 02:14:09;;;;;;;8.55;3.75;;;31.20;72.90;;;;;;5030155;28;20513;-65
2023/03/10 02:16:37;;;;;;;7.50;2.70;;;31.50;70.50;;;;;;5035311;28;20612;-64
2023/03/10 02:19:11;;;;;;;7.68;3.05;;;31.90;68.70;;;;;;5028803;28;20041;-64
2023/03/10 02:22:04;;;;;;;6.68;2.92;;;32.20;71.50;;;;;;5029265;28;20034;-64
2023/03/10 02:25:02;;;;;;;8.60;3.10;;;32.70;67.70;;;;;;5034901;28;20021;-65
2023/03/10 02:27:38;;;;;;;5.90;2.80;;;33.00;65.50;;;;;;5029437;28;20548;-64
2023/03/10 02:30:14;;;;;;;6.90;3.03;;;33.40;64.80;;;;;;5029399;28;20033;-64
2023/03/10 02:32:45;;;;;;;8.98;3.03;;;33.30;61.10;;;;;;5027349;28;20029;-63
2023/03/10 02:35:13;;;;;;;6.97;2.63;;;32.70;60.00;;;;;;5030450;28;20021;-64
2023/03/10 02:37:40;;;;;;;6.25;2.95;;;31.90;63.70;;;;;;5028119;28;20037;-64
2023/03/10 02:40:28;;;;;;;3.88;2.72;;;31.60;63.00;;;;;;5029531;28;20045;-66
2023/03/10 02:42:56;;;;;;;7.82;3.08;;;31.40;64.20;;;;;;5020996;28;20061;-63
2023/03/10 02:45:27;;;;;;;5.70;3.05;;;31.10;64.70;;;;;;5015242;28;20100;-63
2023/03/10 02:47:54;;;;;;;5.88;3.10;;;30.60;63.30;;;;;;5033432;28;20029;-62
2023/03/10 02:50:24;;;;;;;4.85;2.60;;;29.80;67.10;;;;;;5038994;28;20371;-62
2023/03/10 02:53:03;;;;;;;6.30;3.28;;;29.50;66.40;;;;;;5032375;28;20148;-62
2023/03/10 02:55:30;;;;;;;8.07;3.72;;;29.20;67.70;;;;;;5027559;28;20112;-62
2023/03/10 02:58:01;;;;;;;6.65;3.38;;;29.20;68.20;;;;;;5031193;28;20021;-62
2023/03/10 03:00:29;;;;;;;6.32;3.92;;;29.20;66.80;;;;;;5035106;28;20034;-62
2023/03/10 03:02:57;;;;;;;6.60;3.22;;;29.10;67.80;;;;;;5029976;28;20548;-63
2023/03/10 03:05:24;;;;;;;6.03;3.15;;;29.20;69.90;;;;;;5032502;28;20041;-61
2023/03/10 03:07:52;;;;;;;7.10;3.08;;;30.00;71.00;;;;;;5037529;28;20017;-64
2023/03/10 03:10:19;;;;;;;6.57;3.20;;;30.40;71.00;;;;;;5034062;28;20061;-64
2023/03/10 03:12:49;;;;;;;6.00;3.00;;;31.00;66.70;;;;;;5046788;28;20022;-65
2023/03/10 03:15:17;;;;;;;6.43;2.90;;;31.60;66.90;;;;;;5040315;28;20025;-63
2023/03/10 03:17:45;;;;;;;7.35;3.08;;;32.20;67.80;;;;;;5037256;28;20481;-62
2023/03/10 03:20:13;;;;;;;6.47;3.20;;;32.50;66.30;;;;;;5031451;28;20128;-62
2023/03/10 03:22:44;;;;;;;6.00;3.10;;;32.80;63.80;;;;;;5040858;28;20082;-63
2023/03/10 03:25:14;;;;;;;11.70;2.60;;;33.10;64.70;;;;;;5040375;28;20079;-64
2023/03/10 03:27:42;;;;;;;9.52;2.42;;;33.60;63.80;;;;;;5033841;28;20056;-64
2023/03/10 03:30:13;;;;;;;5.00;2.17;;;33.10;63.50;;;;;;5031166;28;20386;-63
2023/03/10 03:32:41;;;;;;;8.20;2.95;;;32.60;65.70;;;;;;5026765;28;20026;-62
2023/03/10 03:35:14;;;;;;;8.55;2.30;;;32.30;61.40;;;;;;5025767;28;20117;-63
2023/03/10 03:37:43;;;;;;;3.70;2.38;;;32.10;65.30;;;;;;5024412;28;20034;-63
2023/03/10 03:40:12;;;;;;;5.18;2.85;;;31.90;64.60;;;;;;5029705;28;20064;-62
2023/03/10 03:42:45;;;;;;;6.28;2.28;;;31.60;62.00;;;;;;5026929;28;20105;-63
2023/03/10 03:45:14;;;;;;;5.65;2.70;;;31.60;65.20;;;;;;5030734;28;20029;-63
2023/03/10 03:47:42;;;;;;;6.15;2.58;;;31.60;64.70;;;;;;5028793;28;20490;-62
2023/03/10 03:50:12;;;;;;;5.35;2.55;;;31.70;64.40;;;;;;5018666;28;20025;-63
2023/03/10 03:52:40;;;;;;;6.40;2.70;;;31.30;60.50;;;;;;5024494;28;20029;-64
2023/03/10 03:55:09;;;;;;;6.00;2.50;;;31.00;64.10;;;;;;5032947;28;20087;-63
2023/03/10 03:57:36;;;;;;;3.42;2.60;;;31.30;64.20;;;;;;5032921;28;20064;-63
2023/03/10 04:00:07;;;;;;;5.55;2.47;;;31.70;63.10;;;;;;5025133;28;20048;-64
2023/03/10 04:02:35;;;;;;;7.38;2.72;;;32.30;63.00;;;;;;5026516;28;20030;-64
2023/03/10 04:05:03;;;;;;;5.05;2.17;;;32.80;62.10;;;;;;5023420;28;20124;-64
2023/03/10 04:07:31;;;;;;;5.47;2.13;;;32.60;59.30;;;;;;5030195;28;20136;-64
2023/03/10 04:09:58;;;;;;;7.32;3.03;;;32.30;60.70;;;;;;5024922;28;20025;-64
2023/03/10 04:12:28;;;;;;;7.72;2.90;;;31.90;59.20;;;;;;5027710;28;20506;-65
2023/03/10 04:14:55;;;;;;;5.38;2.25;;;31.80;61.90;;;;;;5033202;28;20033;-64
2023/03/10 04:17:23;;;;;;;3.65;2.00;;;31.50;64.00;;;;;;5023563;28;20029;-65
2023/03/10 04:19:50;;;;;;;4.80;1.73;;;31.20;65.10;;;;;;5020093;28;20041;-64
2023/03/10 04:22:18;;;;;;;4.20;1.63;;;31.00;67.80;;;;;;5028329;28;20021;-64
2023/03/10 04:24:45;;;;;;;4.50;1.55;;;30.50;69.80;;;;;;5024980;28;20029;-69
2023/03/10 04:27:12;;;;;;;4.57;1.50;;;30.10;71.40;;;;;;5017065;28;20065;-63
2023/03/10 04:29:40;;;;;;;4.45;1.60;;;29.70;72.70;;;;;;5024368;28;20124;-64
2023/03/10 04:32:07;;;;;;;6.35;1.60;;;29.20;72.60;;;;;;5026116;28;20179;-63
2023/03/10 04:34:35;;;;;;;8.43;1.95;;;29.00;75.40;;;;;;5031179;28;20159;-63
2023/03/10 04:37:02;;;;;;;6.05;2.10;;;28.90;75.50;;;;;;5026537;28;20057;-63
2023/03/10 04:39:30;;;;;;;3.70;1.55;;;28.80;76.80;;;;;;5024886;28;20034;-63
2023/03/10 04:41:57;;;;;;;4.93;1.77;;;28.70;77.80;;;;;;5025192;28;20033;-62
2023/03/10 04:44:25;;;;;;;5.63;1.00;;;28.70;77.10;;;;;;5025327;28;20033;-62
2023/03/10 04:46:52;;;;;;;4.10;1.33;;;28.80;81.00;;;;;;5028895;28;20022;-62
2023/03/10 04:49:19;;;;;;;4.68;1.13;;;28.70;83.10;;;;;;5026918;28;20022;-62
2023/03/10 04:51:47;;;;;;;4.68;1.17;;;28.90;84.30;;;;;;5028904;28;20075;-65
2023/03/10 04:54:15;;;;;;;2.28;0.98;;;29.00;82.60;;;;;;5030136;28;20025;-63
2023/03/10 04:56:42;;;;;;;6.13;1.27;;;29.30;82.50;;;;;;5034121;28;20070;-64
2023/03/10 04:59:10;;;;;;;3.13;1.20;;;29.60;83.10;;;;;;5040360;28;20120;-63
2023/03/10 05:01:37;;;;;;;6.65;1.30;;;29.70;81.30;;;;;;5018610;28;20090;-64
2023/03/10 05:04:06;;;;;;;3.05;1.00;;;29.60;82.80;;;;;;5037205;28;20045;-63
2023/03/10 05:06:33;;;;;;;3.63;0.93;;;29.40;81.80;;;;;;5044745;28;20030;-63
2023/03/10 05:09:03;;;;;;;4.32;1.77;;;29.10;83.20;;;;;;5031970;28;20022;-63
2023/03/10 05:11:31;;;;;;;4.53;1.23;;;28.70;83.70;;;;;;5040283;28;20087;-62
2023/03/10 05:13:59;;;;;;;4.68;1.02;;;28.30;86.00;;;;;;5033150;28;20397;-62
2023/03/10 05:16:26;;;;;;;9.90;1.65;;;28.10;88.30;;;;;;5032760;28;20390;-64
2023/03/10 05:18:54;;;;;;;3.88;1.20;;;28.10;89.90;;;;;;5029276;28;20041;-63
2023/03/10 05:21:21;;;;;;;3.05;0.90;;;28.30;90.10;;;;;;5025384;28;20075;-63
2023/03/10 05:23:49;;;;;;;7.07;1.23;;;28.30;89.60;;;;;;5023372;28;20551;-63
2023/03/10 05:26:17;;;;;;;2.95;1.00;;;28.40;88.60;;;;;;5025507;28;20067;-64
2023/03/10 05:28:44;;;;;;;5.60;1.83;;;28.30;90.10;;;;;;5027600;28;20501;-62
2023/03/10 05:31:15;;;;;;;4.05;1.13;;;28.20;88.50;;;;;;5027917;28;20030;-63
2023/03/10 05:33:43;;;;;;;3.40;1.08;;;28.10;89.90;;;;;;5026092;28;20053;-64
2023/03/10 05:36:13;;;;;;;12.00;4.53;;;28.00;90.60;;;;;;5040248;28;20386;-64
2023/03/10 05:38:41;;;;;;;6.93;3.67;;;28.10;90.70;;;;;;5031195;28;20029;-64
2023/03/10 05:41:10;;;;;;;5.57;1.20;;;28.30;90.70;;;;;;5037453;28;20028;-64
2023/03/10 05:43:38;;;;;;;5.25;1.73;;;28.40;90.10;;;;;;5030748;28;20022;-64
2023/03/10 05:46:07;;;;;;;5.15;1.63;;;28.50;90.10;;;;;;5024546;28;20021;-64
2023/03/10 05:48:34;;;;;;;5.68;1.17;;;28.60;88.40;;;;;;5030834;28;20029;-63
2023/03/10 05:51:10;;;;;;;6.10;1.48;;;28.30;88.60;;;;;;5030647;28;21844;-65
2023/03/10 05:53:38;;;;;;;4.28;1.38;;;28.20;89.20;;;;;;5028884;28;20049;-64
2023/03/10 05:56:08;;;;;;;3.80;1.65;;;28.20;90.30;;;;;;5025936;28;20030;-64
2023/03/10 05:58:37;;;;;;;6.60;1.33;;;28.20;90.60;;;;;;5023161;28;20385;-64
2023/03/10 06:01:05;;;;;;;4.72;1.33;;;28.00;90.70;;;;;;5016109;28;20030;-64
2023/03/10 06:03:32;;;;;;;4.65;1.40;;;28.00;90.80;;;;;;5025255;28;20022;-65
2023/03/10 06:06:00;;;;;;;6.13;1.38;;;28.00;90.90;;;;;;5023376;28;20053;-64
2023/03/10 06:08:28;;;;;;;4.97;1.10;;;28.00;90.90;;;;;;5025209;28;20169;-64
2023/03/10 06:10:57;;;;;;;2.65;1.08;;;27.80;91.30;;;;;;5026429;28;20478;-64
2023/03/10 06:13:25;;;;;;;5.25;1.00;;;27.50;91.50;;;;;;5034046;28;20029;-64
2023/03/10 06:15:58;;;;;;;5.40;1.20;;;27.40;92.00;;;;;;5035676;28;20018;-63
2023/03/10 06:18:27;;;;;;;7.35;1.60;;;27.40;92.20;;;;;;5044317;28;20053;-63
2023/03/10 06:20:55;;;;;;;2.65;0.90;;;27.40;91.60;;;;;;5029686;28;20815;-63
2023/03/10 06:23:23;;;;;;;4.65;1.42;;;27.30;92.00;;;;;;5042710;28;20033;-64
2023/03/10 06:25:59;;;;;;;3.72;2.10;;;27.30;92.20;;;;;;5046291;28;20025;-64
2023/03/10 06:28:31;;;;;;;5.13;1.35;;;27.20;92.60;;;;;;5038727;28;20033;-64
2023/03/10 06:31:04;;;;;;;4.30;1.10;;;27.20;92.70;;;;;;5042989;28;20036;-63
2023/03/10 06:33:32;;;;;;;7.22;1.38;;;27.00;93.10;;;;;;5043864;28;20025;-64
2023/03/10 06:35:59;;;;;;;6.05;1.45;;;27.10;93.40;;;;;;5045846;28;20026;-64
2023/03/10 06:38:27;;;;;;;4.80;1.20;;;27.00;93.40;;;;;;5051735;28;20029;-65
2023/03/10 06:40:54;;;;;;;2.78;1.10;;;26.90;93.10;;;;;;5037981;28;20036;-63
2023/03/10 06:43:22;;;;;;;7.60;1.42;;;26.80;93.80;;;;;;5033250;28;20018;-62
2023/03/10 06:45:49;;;;;;;5.60;1.10;;;26.80;94.10;;;;;;5032718;28;20498;-63
2023/03/10 06:48:17;;;;;;;4.85;1.60;;;26.80;94.50;;;;;;5045380;28;20024;-65
2023/03/10 06:50:49;;;;;;;5.28;1.33;;;26.70;94.40;;;;;;5038590;28;20030;-64
2023/03/10 06:53:19;;;;;;;3.20;1.20;;;26.60;94.80;;;;;;5039588;28;20029;-63
2023/03/10 06:56:00;;;;;;;7.20;1.55;;;26.40;95.20;;;;;;5034476;28;20029;-63
2023/03/10 06:58:28;;;;;;;6.10;1.35;;;26.40;95.80;;;;;;5035128;28;20449;-63
2023/03/10 07:00:56;;;;;;;7.50;1.05;;;26.40;96.00;;;;;;5034432;28;20033;-64
2023/03/10 07:03:25;;;;;;;7.57;1.30;;;26.40;95.70;;;;;;5029605;28;20116;-64
2023/03/10 07:05:52;;;;;;;3.72;1.00;;;26.30;95.90;;;;;;5031211;28;20127;-64
2023/03/10 07:08:20;;;;;;;6.38;1.20;;;26.20;96.30;;;;;;5027260;28;20029;-63
2023/03/10 07:10:48;;;;;;;5.60;1.27;;;26.10;96.60;;;;;;5022308;28;20120;-63
2023/03/10 07:13:16;;;;;;;8.20;1.30;;;26.00;97.00;;;;;;5021106;28;20040;-64
2023/03/10 07:15:45;;;;;;;2.53;0.90;;;25.90;97.30;;;;;;5024933;28;20064;-64
2023/03/10 07:18:14;;;;;;;6.75;2.13;;;25.80;97.70;;;;;;5029820;28;20523;-63
2023/03/10 07:20:46;;;;;;;6.30;1.08;;;25.80;98.00;;;;;;5022549;28;20490;-63
2023/03/10 07:23:14;;;;;;;6.05;0.93;;;25.60;98.30;;;;;;5026429;28;20382;-64
2023/03/10 07:25:41;;;;;;;5.38;1.42;;;25.50;98.80;;;;;;5027496;28;20040;-64
2023/03/10 07:28:09;;;;;;;5.47;1.30;;;25.30;99.90;;;;;;5021122;28;20451;-64
2023/03/10 07:30:37;;;;;;;10.88;2.25;;;25.20;99.90;;;;;;5030464;28;20087;-65
2023/03/10 07:33:05;;;;;;;7.90;1.50;;;25.00;99.90;;;;;;5024463;28;20117;-63
2023/03/10 07:35:32;;;;;;;4.00;1.30;;;24.90;99.90;;;;;;5023330;28;20044;-64
2023/03/10 07:38:00;;;;;;;4.70;1.60;;;24.80;99.90;;;;;;5027927;28;20493;-64
2023/03/10 07:40:27;;;;;;;8.00;2.00;;;24.70;99.90;;;;;;5025046;28;20037;-64
2023/03/10 07:42:55;;;;;;;11.10;1.27;;;24.60;99.90;;;;;;5018646;28;20064;-63
2023/03/10 07:45:24;;;;;;;7.15;1.55;;;24.50;99.90;;;;;;5025813;28;20565;-64
2023/03/10 07:47:52;;;;;;;5.90;1.30;;;24.40;99.90;;;;;;5012904;28;20029;-64
2023/03/10 07:50:20;;;;;;;5.68;1.02;;;24.30;99.90;;;;;;5032925;28;20033;-64
2023/03/10 07:52:48;;;;;;;7.78;1.67;;;24.30;99.90;;;;;;5032032;28;20030;-64
2023/03/10 07:55:16;;;;;;;10.43;1.50;;;24.20;99.90;;;;;;5019796;28;20164;-64
2023/03/10 07:57:44;;;;;;;6.18;2.08;;;24.20;99.90;;;;;;5023046;28;20033;-63
2023/03/10 08:00:12;;;;;;;6.00;1.35;;;24.00;99.90;;;;;;5027602;28;20064;-64
2023/03/10 08:02:40;;;;;;;5.63;1.95;;;24.00;99.90;;;;;;5024756;28;20045;-64
2023/03/10 08:05:09;;;;;;;8.43;1.85;;;23.90;99.90;;;;;;5014719;28;20049;-65
2023/03/10 08:07:37;;;;;;;8.30;2.20;;;23.80;99.90;;;;;;5028265;28;20104;-64
2023/03/10 08:10:05;;;;;;;5.45;1.27;;;23.80;99.90;;;;;;5019875;28;20091;-65
2023/03/10 08:12:33;;;;;;;6.95;1.48;;;23.70;99.90;;;;;;5026444;28;20020;-65
2023/03/10 08:15:01;;;;;;;8.02;2.38;;;23.60;99.90;;;;;;5028426;28;20040;-63
2023/03/10 08:17:32;;;;;;;6.75;1.27;;;23.50;99.90;;;;;;5018868;28;20966;-64
2023/03/10 08:20:00;;;;;;;8.10;1.83;;;23.40;99.90;;;;;;5022583;28;20104;-63
2023/03/10 08:22:28;;;;;;;14.75;1.92;;;23.30;99.90;;;;;;5018616;28;20144;-62
2023/03/10 08:24:55;;;;;;;6.90;2.17;;;23.30;99.90;;;;;;5026009;28;20033;-62
2023/03/10 08:27:23;;;;;;;4.95;1.42;;;23.20;99.90;;;;;;5024047;28;20079;-63
2023/03/10 08:29:50;;;;;;;7.00;1.42;;;23.20;99.90;;;;;;5027446;28;20033;-63
2023/03/10 08:32:18;;;;;;;6.50;1.52;;;23.10;99.90;;;;;;5026549;28;20526;-62
2023/03/10 08:34:46;;;;;;;6.78;1.85;;;23.00;99.90;;;;;;5027154;28;20051;-63
2023/03/10 08:37:14;;;;;;;12.63;1.85;;;23.00;99.90;;;;;;5035442;28;20112;-63
2023/03/10 08:39:41;;;;;;;9.13;1.77;;;22.90;99.90;;;;;;5025929;28;20041;-63
2023/03/10 08:42:13;;;;;;;2.95;1.00;;;22.90;99.90;;;;;;5027503;28;20097;-62
2023/03/10 08:44:41;;;;;;;7.13;1.00;;;22.90;99.90;;;;;;5008588;28;20402;-63
2023/03/10 08:47:08;;;;;;;5.63;1.38;;;22.80;99.90;;;;;;5015142;28;20521;-63
2023/03/10 08:49:36;;;;;;;8.52;1.75;;;22.80;99.90;;;;;;5021339;28;20029;-63
2023/03/10 08:52:04;;;;;;;6.75;1.70;;;22.70;99.90;;;;;;5029944;28;20032;-63
2023/03/10 08:54:31;;;;;;;7.20;1.55;;;22.60;99.90;;;;;;5016096;28;20070;-63
2023/03/10 08:56:59;;;;;;;5.50;1.30;;;22.60;99.90;;;;;;5010461;28;20053;-63
2023/03/10 08:59:27;;;;;;;5.57;1.27;;;22.50;99.90;;;;;;5025874;28;20045;-63
2023/03/10 09:01:54;;;;;;;8.10;1.48;;;22.50;99.90;;;;;;5020275;28;20030;-63
2023/03/10 09:04:22;;;;;;;6.50;1.23;;;22.40;99.90;;;;;;5025058;28;20038;-63
2023/03/10 09:06:49;;;;;;;4.25;1.48;;;22.40;99.90;;;;;;5029505;28;20064;-63
2023/03/10 09:09:17;;;;;;;5.75;1.23;;;22.40;99.90;;;;;;5019939;28;20084;-64
2023/03/10 09:11:44;;;;;;;8.15;1.33;;;22.30;99.90;;;;;;5025896;28;20083;-63
2023/03/10 09:14:15;;;;;;;7.60;1.25;;;22.30;99.90;;;;;;5030362;28;20030;-63
2023/03/10 09:16:42;;;;;;;6.22;2.05;;;22.20;99.90;;;;;;5036424;28;20153;-63
2023/03/10 09:19:10;;;;;;;11.52;3.08;;;22.20;99.90;;;;;;5019598;28;20038;-62
2023/03/10 09:21:38;;;;;;;6.63;1.20;;;22.20;99.90;;;;;;5012232;28;20072;-62
2023/03/10 09:24:06;;;;;;;11.38;1.42;;;22.20;99.90;;;;;;5009992;28;20478;-63
2023/03/10 09:26:33;;;;;;;7.13;1.40;;;22.20;99.90;;;;;;5015680;28;20064;-62
2023/03/10 09:29:01;;;;;;;7.15;1.27;;;22.10;99.90;;;;;;5021797;28;20057;-62
2023/03/10 09:31:31;;;;;;;11.65;1.48;;;22.10;99.90;;;;;;5015946;28;20077;-62
2023/03/10 09:33:59;;;;;;;9.85;1.30;;;22.00;99.90;;;;;;5015965;28;20033;-62
2023/03/10 09:36:28;;;;;;;8.60;1.75;;;22.00;99.90;;;;;;5018847;28;20509;-62
2023/03/10 09:38:57;;;;;;;4.60;1.50;;;22.00;99.90;;;;;;5038033;28;20099;-62
2023/03/10 09:41:56;;;;;;;7.95;1.85;;;21.90;99.90;;;;;;5020224;28;20079;-62
2023/03/10 09:44:30;;;;;;;8.30;1.63;;;21.80;99.90;;;;;;5024623;28;20040;-62
2023/03/10 09:47:16;;;;;;;7.93;1.50;;;21.70;99.90;;;;;;5024179;28;20033;-62
2023/03/10 09:50:15;;;;;;;8.65;1.77;;;21.60;99.90;;;;;;5025050;28;20267;-62
2023/03/10 09:52:56;;;;;;;6.68;1.38;;;21.60;99.90;;;;;;5022081;28;20414;-62
2023/03/10 09:55:36;;;;;;;8.40;1.17;;;21.60;99.90;;;;;;5025428;28;20021;-62
2023/03/10 09:58:04;;;;;;;7.88;1.55;;;21.50;99.90;;;;;;5025262;28;20028;-62
2023/03/10 10:00:40;;;;;;;11.98;1.58;;;21.40;99.90;;;;;;5033414;28;20039;-63
2023/03/10 10:03:21;;;;;;;9.73;1.20;;;21.40;99.90;;;;;;5025678;28;20028;-62
2023/03/10 10:05:52;;;;;;;5.07;1.20;;;21.30;99.90;;;;;;5030438;28;20092;-62
2023/03/10 10:08:27;;;;;;;9.98;1.38;;;21.30;99.90;;;;;;5024090;28;20033;-62
2023/03/10 10:10:57;;;;;;;10.18;1.42;;;21.20;99.90;;;;;;5027686;28;20383;-62
2023/03/10 10:13:29;;;;;;;6.35;1.40;;;21.30;99.90;;;;;;5034074;28;20363;-61
2023/03/10 10:16:19;;;;;;;8.82;1.98;;;21.20;99.90;;;;;;5033119;28;20057;-62
2023/03/10 10:19:02;;;;;;;6.20;1.00;;;21.10;99.90;;;;;;5015924;28;20029;-60
2023/03/10 10:21:45;;;;;;;8.38;1.70;;;21.00;99.90;;;;;;5025352;28;20057;-60
2023/03/10 10:24:12;;;;;;;9.50;2.38;;;21.00;99.90;;;;;;5029696;28;20029;-60
2023/03/10 10:26:40;;;;;;;8.27;1.70;;;20.90;99.90;;;;;;5022678;28;20736;-60
2023/03/10 10:29:16;;;;;;;8.38;2.25;;;20.90;99.90;;;;;;5028189;28;20033;-60
2023/03/10 10:32:06;;;;;;;10.32;3.03;;;20.80;99.90;;;;;;5034748;28;20021;-59
2023/03/10 10:34:36;;;;;;;9.05;1.30;;;20.70;99.90;;;;;;5025533;28;20028;-60
2023/03/10 10:37:19;;;;;;;10.57;1.50;;;20.70;99.90;;;;;;5027972;28;20643;-60
2023/03/10 10:39:51;;;;;;;6.47;1.20;;;20.70;99.90;;;;;;5016469;28;20091;-62
2023/03/10 10:42:24;;;;;;;6.93;1.60;;;20.70;99.90;;;;;;5028571;28;20022;-59
2023/03/10 10:44:57;;;;;;;5.93;1.52;;;20.60;99.90;;;;;;5012093;28;20072;-60
2023/03/10 10:47:45;;;;;;;7.57;1.90;;;20.60;99.90;;;;;;5028591;28;20032;-60
2023/03/10 10:50:31;;;;;;;9.77;1.90;;;20.50;99.90;;;;;;5027800;28;20385;-60
2023/03/10 10:53:19;;;;;;;6.63;1.38;;;20.50;99.90;;;;;;5026974;28;20032;-61
2023/03/10 10:55:58;;;;;;;12.73;2.00;;;20.40;99.90;;;;;;5035225;28;20025;-59
2023/03/10 10:58:30;;;;;;;8.68;1.73;;;20.50;99.90;;;;;;5027138;28;20395;-61
2023/03/10 11:01:02;;;;;;;9.80;1.90;;;20.50;99.90;;;;;;5031266;28;20423;-61
2023/03/10 11:03:33;;;;;;;9.75;1.38;;;20.40;99.90;;;;;;5029847;28;20029;-60
2023/03/10 11:06:11;;;;;;;7.80;1.33;;;20.40;99.90;;;;;;5043514;28;20080;-60
2023/03/10 11:08:41;;;;;;;8.73;1.20;;;20.40;99.90;;;;;;5040025;28;20032;-60
2023/03/10 11:11:23;;;;;;;6.13;1.25;;;20.40;99.90;;;;;;5022235;28;20030;-60
2023/03/10 11:14:05;;;;;;;9.27;1.35;;;20.40;99.90;;;;;;5034415;28;20053;-60
2023/03/10 11:17:13;;;;;;;6.22;1.40;;;20.30;99.90;;;;;;5025370;28;20793;-61
2023/03/10 11:19:53;;;;;;;8.35;1.50;;;20.20;99.90;;;;;;5033163;28;20048;-59
2023/03/10 11:22:40;;;;;;;7.70;1.10;;;20.20;99.90;;;;;;5032171;28;20029;-58
2023/03/10 11:25:15;;;;;;;9.80;1.55;;;20.10;99.90;;;;;;5022470;28;20017;-58
2023/03/10 11:28:18;;;;;;;10.98;2.53;;;20.00;99.90;;;;;;5025944;28;20471;-59
2023/03/10 11:31:26;;;;;;;9.18;1.50;;;20.00;99.90;;;;;;4997245;28;20114;-58
2023/03/10 11:34:00;;;;;;;9.05;1.85;;;20.00;99.90;;;;;;5027973;28;20049;-58
2023/03/10 11:36:36;;;;;;;9.75;3.08;;;19.90;99.90;;;;;;5029722;28;20025;-59
2023/03/10 11:39:13;;;;;;;8.32;1.83;;;19.80;99.90;;;;;;5028925;28;20041;-59
2023/03/10 11:41:45;;;;;;;8.75;2.17;;;19.70;99.90;;;;;;5033993;28;20108;-59
2023/03/10 11:44:42;;;;;;;7.45;1.52;;;19.60;99.90;;;;;;5033778;28;20025;-59
2023/03/10 11:47:31;;;;;;;5.57;1.42;;;19.50;99.90;;;;;;5034273;28;20041;-59
2023/03/10 11:50:18;;;;;;;7.90;1.52;;;19.30;99.90;;;;;;5025367;28;20025;-59
2023/03/10 11:52:47;;;;;;;9.52;1.77;;;19.20;99.90;;;;;;5029457;28;20494;-59
2023/03/10 11:55:21;;;;;;;10.20;1.73;;;19.10;99.90;;;;;;5037692;28;20382;-60
2023/03/10 11:57:54;;;;;;;10.45;2.40;;;19.00;99.90;;;;;;5031795;28;20486;-60
2023/03/10 12:00:44;;;;;;;11.65;1.65;;;19.00;99.90;;;;;;5030240;28;20041;-59
2023/03/10 12:03:26;;;;;;;7.32;1.23;;;19.10;99.90;;;;;;5020997;28;20033;-59
2023/03/10 12:06:00;;;;;;;4.78;1.67;;;19.10;99.90;;;;;;5028146;28;20124;-60
2023/03/10 12:08:34;;;;;;;6.32;1.38;;;19.00;99.90;;;;;;5026323;28;20030;-59
2023/03/10 12:11:04;;;;;;;;;;;19.00;99.90;;;;;;5028364;28;20025;-59
2023/03/10 12:13:42;;;;;;;8.85;1.30;;;19.00;99.90;;;;;;5022067;28;19909;-60
2023/03/10 12:16:16;;;;;;;7.30;1.58;;;18.90;99.90;;;;;;5023610;28;20018;-59
2023/03/10 12:18:44;;;;;;;11.68;1.45;;;18.90;99.90;;;;;;5028222;28;20034;-59
2023/03/10 12:21:27;;;;;;;5.55;1.33;;;18.90;99.90;;;;;;5015121;28;20132;-59
2023/03/10 12:23:57;;;;;;;9.23;1.48;;;18.80;99.90;;;;;;5028406;28;20502;-59
2023/03/10 12:26:41;;;;;;;6.15;1.13;;;18.80;99.90;;;;;;5023604;28;20025;-60
2023/03/10 12:29:20;;;;;;;7.95;1.98;;;18.90;99.90;;;;;;5030062;28;20021;-59
2023/03/10 12:31:50;;;;;;;12.88;1.80;;;18.90;99.90;;;;;;5030643;28;20631;-60
2023/03/10 12:34:22;;;;;;;10.48;1.15;;;18.90;99.90;;;;;;5029386;28;20048;-60
2023/03/10 12:37:11;;;;;;;9.15;1.95;;;18.90;99.90;;;;;;5025189;28;20101;-60
2023/03/10 12:39:43;;;;;;;10.43;1.73;;;18.90;99.90;;;;;;5022901;28;20045;-60
2023/03/10 12:42:38;;;;;;;8.43;2.53;;;18.80;99.90;;;;;;5029488;28;20083;-60
2023/03/10 12:45:30;;;;;;;8.07;1.75;;;18.80;99.90;;;;;;5030530;28;20374;-60
2023/03/10 12:48:15;;;;;;;5.68;1.52;;;18.90;99.90;;;;;;5029012;28;20115;-60
2023/03/10 12:50:43;;;;;;;9.27;1.35;;;19.00;99.90;;;;;;5011373;28;20037;-59
2023/03/10 12:53:28;;;;;;;8.80;2.17;;;19.00;99.90;;;;;;5026756;28;20029;-59
2023/03/10 12:56:14;;;;;;;5.32;1.40;;;19.10;99.90;;;;;;5025321;28;20106;-59
2023/03/10 12:58:48;;;;;;;11.75;1.73;;;19.10;99.90;;;;;;5018997;28;20040;-59
2023/03/10 13:01:19;;;;;;;7.82;1.58;;;19.10;99.90;;;;;;5020219;28;20041;-59
2023/03/10 13:03:51;;;;;;;9.23;1.85;;;19.00;99.90;;;;;;5013754;28;20052;-61
2023/03/10 13:06:33;;;;;;;8.60;1.60;;;18.90;99.90;;;;;;5025619;28;20643;-59
2023/03/10 13:09:19;;;;;;;14.27;1.90;;;18.90;99.90;;;;;;5027703;28;20026;-59